Clare, Illinois
Current Conditions -  °F | °C
As of 9:15 AM on Monday 24 Nov 2014 (Local Time) from KDKB Reporting Station
Overcast Overcast  
Wind Chill: 21°   Ceiling: 900
Heat Index: 33°   Visibility: NA
Dew Point: 32°   Wind: 23mph
Humidity: 95%   Direction: 270°W
Pressure: 29.2"   Gusts: 32mph
Location:  42.02°N, 88.83°W
Report Text: KDKB 241515Z AUTO 27020G28KT BKN009 BKN013 OVC042 01/00 A2920 RMK AO2 P0002 T00070000 PWINO
Loading
Personal Weather Stations






























Interactive Weather Map New forecast layout! Learn more

10-Day Weather Forecast

Advertisements
Track Severe Weather on mobile